Grindstone Creek Rancheria, California
Current Conditions -  °F | °C
As of 7:56 PM on Saturday 20 Dec 2014 (Local Time) from KUKI Reporting Station
Haze Haze  
Wind Chill: 54°   Ceiling: 2400
Heat Index: 54°   Visibility: 6mi
Dew Point: 52°   Wind: 7mph
Humidity: 93%   Direction: 170°S
Pressure: 30.2"   Gusts: NA
Location:  39.5562°N, 122.604°W
Report Text: KUKI 210356Z AUTO 17006KT 6SM BR FEW007 SCT012 OVC024 12/11 A3020 RMK AO2 RAE42B48E56 SLP222 P0001 T01220111
Loading
Personal Weather Stations






























Interactive Weather Map New forecast layout! Learn more

10-Day Weather Forecast

Advertisements
Track Severe Weather on mobile